createdAt,value
2022-09-27T00:02:25.173Z,13.90
2022-09-27T00:04:55.822Z,25.52
2022-09-27T00:07:25.000Z,25.45
2022-09-27T00:09:54.300Z,18.50
2022-09-27T00:12:23.941Z,22.58
2022-09-27T00:14:53.469Z,20.88
2022-09-27T00:17:22.715Z,20.23
2022-09-27T00:19:53.512Z,23.90
2022-09-27T00:22:23.038Z,22.80
2022-09-27T00:24:52.533Z,20.27
2022-09-27T00:27:22.238Z,26.02
2022-09-27T00:29:51.506Z,21.63
2022-09-27T00:32:20.963Z,20.10
2022-09-27T00:34:53.337Z,20.42
2022-09-27T00:37:22.578Z,20.83
2022-09-27T00:39:51.728Z,18.92
2022-09-27T00:42:20.933Z,21.45
2022-09-27T00:46:07.078Z,22.75
2022-09-27T00:48:38.713Z,28.83
2022-09-27T00:51:11.052Z,23.13
2022-09-27T00:53:47.417Z,21.08
2022-09-27T00:56:20.183Z,29.10
2022-09-27T00:58:56.375Z,59.25
2022-09-27T01:01:25.695Z,30.25
2022-09-27T01:04:01.454Z,30.77
2022-09-27T01:06:32.360Z,23.13
2022-09-27T01:09:01.573Z,22.70
2022-09-27T01:11:40.045Z,36.00
2022-09-27T01:14:46.613Z,40.95
2022-09-27T01:17:33.417Z,36.10
2022-09-27T01:20:32.071Z,33.10
2022-09-27T01:23:24.494Z,46.38
2022-09-27T01:26:09.206Z,50.25
2022-09-27T01:28:51.538Z,41.13
2022-09-27T01:31:30.051Z,29.88
2022-09-27T01:34:05.840Z,21.27
2022-09-27T01:36:45.529Z,17.45
2022-09-27T01:39:28.716Z,20.23
2022-09-27T01:42:23.996Z,16.38
2022-09-27T01:45:04.272Z,22.95
2022-09-27T01:47:48.545Z,29.25
2022-09-27T01:50:49.461Z,22.95
2022-09-27T01:53:26.229Z,31.75
2022-09-27T01:56:13.510Z,29.58
2022-09-27T01:59:02.315Z,27.83
2022-09-27T02:01:36.527Z,24.92
2022-09-27T02:04:13.043Z,28.50
2022-09-27T02:06:47.127Z,31.35
2022-09-27T02:09:24.241Z,21.98
2022-09-27T02:12:01.889Z,25.88
2022-09-27T02:14:37.167Z,25.60
2022-09-27T02:17:14.938Z,23.23
2022-09-27T02:19:54.626Z,26.70
2022-09-27T02:22:37.861Z,24.02
2022-09-27T02:25:15.164Z,26.70
2022-09-27T02:27:54.590Z,29.77
2022-09-27T02:30:24.390Z,21.65
2022-09-27T02:33:01.682Z,20.48
2022-09-27T02:35:34.760Z,25.73
2022-09-27T02:38:06.255Z,12.82
2022-09-27T02:40:38.374Z,12.82
2022-09-27T02:43:08.058Z,15.70
2022-09-27T02:45:45.957Z,7.00
2022-09-27T02:48:27.115Z,14.82
2022-09-27T02:51:14.549Z,11.82
2022-09-27T02:53:59.087Z,13.60
2022-09-27T02:57:01.209Z,17.23
2022-09-27T03:00:11.055Z,12.63
2022-09-27T03:03:11.830Z,15.55
2022-09-27T03:06:06.477Z,15.10
2022-09-27T03:08:36.226Z,19.95
2022-09-27T03:11:06.054Z,18.52
2022-09-27T03:13:55.800Z,15.57
2022-09-27T03:16:29.260Z,15.15
2022-09-27T03:19:33.513Z,16.73
2022-09-27T03:22:22.633Z,16.23
2022-09-27T03:24:55.054Z,16.17
2022-09-27T03:27:25.305Z,20.50
2022-09-27T03:29:54.669Z,22.17
2022-09-27T03:32:23.856Z,16.38
2022-09-27T03:35:14.618Z,16.70
2022-09-27T03:37:47.290Z,19.83
2022-09-27T03:40:16.853Z,20.55
2022-09-27T03:42:49.728Z,28.38
2022-09-27T03:45:19.337Z,41.95
2022-09-27T03:47:49.517Z,32.22
2022-09-27T03:50:19.031Z,32.85
2022-09-27T03:52:50.225Z,33.00
2022-09-27T03:55:19.580Z,30.85
2022-09-27T03:57:49.057Z,29.88
2022-09-27T04:00:20.067Z,39.55
2022-09-27T04:02:54.185Z,30.98
2022-09-27T04:05:24.279Z,26.08
2022-09-27T04:07:59.749Z,31.20
2022-09-27T04:10:31.577Z,21.38
2022-09-27T04:13:01.814Z,23.13
2022-09-27T04:15:36.034Z,28.20
2022-09-27T04:18:24.478Z,25.45
2022-09-27T04:21:24.448Z,22.63
2022-09-27T04:23:58.185Z,25.02
2022-09-27T04:26:29.688Z,28.92
2022-09-27T04:29:05.434Z,19.00
2022-09-27T04:31:40.569Z,22.40
2022-09-27T04:34:45.518Z,25.00
2022-09-27T04:37:17.404Z,20.92
2022-09-27T04:39:51.712Z,15.25
2022-09-27T04:42:21.666Z,18.15
2022-09-27T04:44:51.727Z,11.90
2022-09-27T04:47:21.391Z,11.77
2022-09-27T04:49:50.936Z,11.25
2022-09-27T04:52:20.376Z,19.65
2022-09-27T04:54:52.227Z,13.80
2022-09-27T04:57:22.348Z,13.88
2022-09-27T04:59:53.678Z,14.43
2022-09-27T05:02:23.490Z,14.57
2022-09-27T05:05:23.952Z,12.88
2022-09-27T05:07:55.788Z,11.73
2022-09-27T05:10:49.894Z,14.38
2022-09-27T05:13:19.765Z,20.85
2022-09-27T05:15:49.474Z,20.85
2022-09-27T05:18:41.738Z,13.27
2022-09-27T05:21:40.220Z,14.80
2022-09-27T05:24:09.699Z,16.23
2022-09-27T05:26:42.387Z,15.25
2022-09-27T05:29:13.409Z,12.37
2022-09-27T05:31:47.532Z,9.90
2022-09-27T05:34:20.417Z,13.20
2022-09-27T05:37:00.460Z,13.10
2022-09-27T05:39:33.352Z,13.00
2022-09-27T05:42:05.071Z,9.98
2022-09-27T05:44:36.156Z,15.38
2022-09-27T05:47:07.299Z,10.50
2022-09-27T05:49:37.695Z,12.50
2022-09-27T05:52:10.075Z,12.40
2022-09-27T05:54:41.431Z,10.48
2022-09-27T05:57:12.928Z,12.18
2022-09-27T06:02:23.564Z,8.65
2022-09-27T06:05:38.162Z,8.75
2022-09-27T06:08:26.980Z,10.68
2022-09-27T06:11:04.528Z,9.13
2022-09-27T06:13:37.611Z,7.45
2022-09-27T06:16:09.802Z,5.45
2022-09-27T06:18:40.415Z,13.35
2022-09-27T06:21:09.786Z,10.07
2022-09-27T06:23:39.295Z,10.25
2022-09-27T06:26:31.593Z,8.68
2022-09-27T06:29:17.378Z,9.52
2022-09-27T06:31:53.723Z,10.07
2022-09-27T06:34:29.675Z,10.13
2022-09-27T06:36:58.964Z,9.43
2022-09-27T06:39:29.980Z,9.50
2022-09-27T06:42:08.657Z,7.78
2022-09-27T06:44:58.565Z,11.13
2022-09-27T06:47:47.113Z,15.07
2022-09-27T06:50:41.497Z,18.02
2022-09-27T06:53:13.384Z,20.95
2022-09-27T06:55:43.784Z,16.95
2022-09-27T06:58:31.516Z,15.13
2022-09-27T07:01:29.782Z,13.48
2022-09-27T07:04:38.441Z,17.92
2022-09-27T07:07:16.852Z,17.40
2022-09-27T07:09:49.039Z,19.10
2022-09-27T07:12:24.727Z,16.17
2022-09-27T07:15:01.958Z,18.02
2022-09-27T07:17:40.824Z,28.98
2022-09-27T07:20:12.902Z,26.65
2022-09-27T07:22:45.622Z,21.08
2022-09-27T07:25:16.759Z,24.48
2022-09-27T07:27:50.061Z,27.88
2022-09-27T07:30:21.715Z,32.08
2022-09-27T07:33:02.019Z,34.47
2022-09-27T07:35:32.933Z,35.22
2022-09-27T07:38:03.999Z,41.55
2022-09-27T07:40:35.213Z,43.22
2022-09-27T07:43:06.952Z,48.97
2022-09-27T07:45:38.380Z,45.35
2022-09-27T07:48:17.529Z,55.17
2022-09-27T07:51:19.042Z,69.78
2022-09-27T07:54:05.272Z,77.78
2022-09-27T07:57:11.894Z,67.88
2022-09-27T07:59:51.741Z,65.03
2022-09-27T08:02:24.867Z,58.63
2022-09-27T08:04:57.465Z,55.60
2022-09-27T08:07:29.547Z,56.50
2022-09-27T08:09:59.545Z,50.20
2022-09-27T08:12:29.087Z,48.30
2022-09-27T08:15:03.560Z,45.25
2022-09-27T08:17:34.054Z,39.47
2022-09-27T08:20:28.349Z,35.03
2022-09-27T08:23:10.214Z,33.47
2022-09-27T08:25:46.555Z,26.80
2022-09-27T08:28:51.358Z,28.58
2022-09-27T08:31:26.545Z,22.50
2022-09-27T08:33:58.275Z,26.90
2022-09-27T08:36:32.163Z,25.33
2022-09-27T08:39:01.561Z,24.13
2022-09-27T08:41:44.792Z,23.42
2022-09-27T08:44:25.276Z,21.45
2022-09-27T08:47:14.741Z,23.00
2022-09-27T08:49:51.400Z,18.70
2022-09-27T08:52:28.353Z,20.30
2022-09-27T08:55:00.055Z,21.70
2022-09-27T08:57:29.646Z,22.33
2022-09-27T09:00:06.124Z,17.88
2022-09-27T09:02:37.911Z,16.15
2022-09-27T09:05:13.529Z,17.23
2022-09-27T09:08:15.482Z,14.05
2022-09-27T09:11:13.043Z,12.70
2022-09-27T09:18:58.003Z,17.65
2022-09-27T09:22:34.465Z,12.80
2022-09-27T09:25:45.002Z,13.85
2022-09-27T09:28:48.391Z,16.10
2022-09-27T09:32:19.717Z,18.60
2022-09-27T09:35:41.396Z,12.50
2022-09-27T09:38:38.420Z,8.85
2022-09-27T09:41:43.150Z,9.18
2022-09-27T09:45:15.853Z,5.10
2022-09-27T09:48:38.121Z,5.53
2022-09-27T09:51:58.170Z,3.72
2022-09-27T09:55:15.395Z,4.22
2022-09-27T09:58:08.287Z,4.13
2022-09-27T10:00:59.249Z,2.28
2022-09-27T10:03:35.211Z,1.77
2022-09-27T10:06:06.210Z,1.90
2022-09-27T10:08:36.516Z,2.97
2022-09-27T10:11:40.964Z,4.35
2022-09-27T10:14:29.234Z,2.33
2022-09-27T10:17:08.360Z,1.83
2022-09-27T10:19:41.132Z,1.48
2022-09-27T10:22:18.986Z,3.20
2022-09-27T10:25:02.518Z,5.07
2022-09-27T10:28:00.484Z,4.18
2022-09-27T10:30:38.747Z,2.00
2022-09-27T10:33:20.647Z,2.30
2022-09-27T10:36:03.912Z,2.40
2022-09-27T10:38:40.924Z,3.33
2022-09-27T10:41:28.366Z,2.63
2022-09-27T10:44:25.858Z,3.00
2022-09-27T10:47:09.824Z,3.47
2022-09-27T10:49:45.286Z,3.17
2022-09-27T10:52:30.726Z,2.17
2022-09-27T10:55:06.423Z,3.80
2022-09-27T10:57:38.271Z,2.78
2022-09-27T11:00:27.568Z,2.25
2022-09-27T11:03:04.166Z,3.88
2022-09-27T11:05:38.369Z,5.35
2022-09-27T11:08:46.595Z,4.63
2022-09-27T11:14:56.189Z,4.82
2022-09-27T11:17:34.623Z,4.45
2022-09-27T11:20:20.827Z,3.22
2022-09-27T11:23:39.140Z,3.17
2022-09-27T11:26:38.457Z,2.92
2022-09-27T11:29:22.471Z,3.45
2022-09-27T11:32:31.354Z,3.85
2022-09-27T11:35:50.559Z,4.80
2022-09-27T11:38:52.067Z,4.75
2022-09-27T11:41:41.250Z,4.72
2022-09-27T11:45:13.351Z,5.95
2022-09-27T11:48:18.036Z,5.95
2022-09-27T11:51:30.495Z,5.30
2022-09-27T11:54:29.583Z,4.40
2022-09-27T12:04:58.185Z,4.03
2022-09-27T12:07:35.158Z,2.38
2022-09-27T12:10:13.403Z,3.60
2022-09-27T12:12:46.092Z,3.10
2022-09-27T12:15:21.062Z,3.35
2022-09-27T12:17:56.881Z,3.90
2022-09-27T12:20:31.606Z,2.65
2022-09-27T12:23:10.030Z,2.28
2022-09-27T12:26:08.863Z,2.05
2022-09-27T12:28:51.976Z,3.85
2022-09-27T12:31:34.666Z,2.70
2022-09-27T12:34:21.862Z,3.10
2022-09-27T12:37:03.221Z,4.27
2022-09-27T12:39:46.573Z,1.92
2022-09-27T12:42:47.306Z,3.05
2022-09-27T12:45:51.810Z,4.30
2022-09-27T12:48:32.566Z,7.45
2022-09-27T12:51:17.417Z,3.47
2022-09-27T12:54:11.372Z,3.63
2022-09-27T12:57:05.546Z,2.53
2022-09-27T13:00:13.551Z,3.50
2022-09-27T13:03:26.098Z,3.10
2022-09-27T13:06:42.873Z,4.50
2022-09-27T13:10:15.567Z,2.00
2022-09-27T13:13:12.857Z,4.53
2022-09-27T13:15:58.530Z,2.60
2022-09-27T13:19:30.190Z,2.33
2022-09-27T13:23:13.045Z,2.25
2022-09-27T13:25:55.826Z,2.10
2022-09-27T13:29:04.331Z,3.35
2022-09-27T13:32:13.163Z,18.45
2022-09-27T13:35:14.961Z,2.45
2022-09-27T13:37:57.377Z,4.75
2022-09-27T13:40:40.951Z,2.47
2022-09-27T13:44:09.407Z,3.38
2022-09-27T13:47:41.168Z,1.58
2022-09-27T13:50:30.080Z,3.08
2022-09-27T13:53:32.545Z,2.95
2022-09-27T13:56:50.813Z,8.25
2022-09-27T13:59:33.068Z,4.55
2022-09-27T14:02:27.910Z,10.13
2022-09-27T14:05:03.175Z,4.95
2022-09-27T14:07:54.633Z,5.57
2022-09-27T14:10:32.573Z,4.05
2022-09-27T14:13:09.453Z,4.68
2022-09-27T14:16:12.714Z,4.78
2022-09-27T14:18:54.021Z,3.95
2022-09-27T14:21:36.734Z,5.32
2022-09-27T14:24:31.790Z,6.55
2022-09-27T14:27:13.828Z,2.50
2022-09-27T14:29:46.980Z,2.75
2022-09-27T14:32:24.720Z,2.00
2022-09-27T14:35:29.760Z,4.18
2022-09-27T14:38:02.477Z,4.75
2022-09-27T14:40:50.792Z,3.08
2022-09-27T14:43:24.180Z,4.03
2022-09-27T14:45:58.772Z,2.63
2022-09-27T14:48:33.326Z,2.97
2022-09-27T14:51:11.893Z,3.38
2022-09-27T14:53:47.618Z,4.05
2022-09-27T14:56:23.461Z,4.72
2022-09-27T14:59:03.085Z,5.90
2022-09-27T15:01:35.290Z,6.68
2022-09-27T15:04:16.532Z,5.38
2022-09-27T15:06:54.714Z,2.90
2022-09-27T15:09:32.978Z,5.03
2022-09-27T15:12:09.021Z,7.75
2022-09-27T15:14:44.523Z,5.38
2022-09-27T15:17:25.194Z,5.85
2022-09-27T15:20:24.939Z,5.78
2022-09-27T15:22:55.851Z,5.85
2022-09-27T15:25:36.532Z,8.20
2022-09-27T15:28:16.909Z,7.13
2022-09-27T15:30:57.328Z,14.35
2022-09-27T15:33:34.762Z,6.65
2022-09-27T15:36:13.197Z,10.70
2022-09-27T15:39:12.750Z,8.35
2022-09-27T15:42:09.690Z,8.77
2022-09-27T15:44:48.371Z,8.48
2022-09-27T15:47:42.120Z,8.48
2022-09-27T15:50:49.527Z,7.97
2022-09-27T15:53:50.170Z,6.60
2022-09-27T15:56:21.632Z,5.78
2022-09-27T15:58:51.748Z,5.35
2022-09-27T16:01:26.369Z,6.93
2022-09-27T16:04:07.803Z,8.93
2022-09-27T16:06:50.539Z,8.15
2022-09-27T16:09:29.768Z,9.68
2022-09-27T16:12:01.979Z,9.18
2022-09-27T16:14:35.312Z,8.52
2022-09-27T16:17:13.212Z,7.90
2022-09-27T16:19:52.876Z,6.90
2022-09-27T16:22:33.262Z,5.85
2022-09-27T16:25:16.971Z,9.20
2022-09-27T16:27:48.862Z,5.57
2022-09-27T16:30:21.366Z,7.68
2022-09-27T16:32:53.285Z,7.15
2022-09-27T16:35:25.515Z,7.15
2022-09-27T16:37:59.994Z,8.68
2022-09-27T16:40:34.835Z,6.32
2022-09-27T16:43:08.118Z,5.82
2022-09-27T16:45:38.441Z,8.43
2022-09-27T16:48:08.532Z,7.45
2022-09-27T16:50:57.481Z,8.23
2022-09-27T16:53:29.320Z,7.70
2022-09-27T16:56:02.617Z,8.05
2022-09-27T16:58:33.962Z,7.63
2022-09-27T17:01:04.307Z,9.30
2022-09-27T17:03:35.944Z,6.65
2022-09-27T17:06:11.342Z,7.07
2022-09-27T17:08:48.434Z,7.53
2022-09-27T17:11:23.998Z,7.32
2022-09-27T17:13:57.773Z,5.82
2022-09-27T17:18:24.605Z,6.90
2022-09-27T17:21:37.938Z,7.18
2022-09-27T17:26:52.766Z,8.02
2022-09-27T17:29:34.601Z,5.93
2022-09-27T17:32:09.154Z,7.10
2022-09-27T17:34:55.830Z,7.10
2022-09-27T17:37:26.116Z,5.78
2022-09-27T17:39:55.699Z,4.80
2022-09-27T17:42:25.644Z,6.78
2022-09-27T17:44:56.425Z,5.63
2022-09-27T17:47:43.619Z,7.82
2022-09-27T17:50:29.388Z,5.88
2022-09-27T17:53:00.122Z,6.80
2022-09-27T17:55:30.045Z,6.88
2022-09-27T17:58:01.760Z,4.85
2022-09-27T18:00:33.404Z,8.75
2022-09-27T18:03:03.682Z,4.82
2022-09-27T18:05:36.144Z,6.82
2022-09-27T18:08:08.127Z,8.77
2022-09-27T18:10:39.837Z,4.93
2022-09-27T18:13:10.328Z,7.47
2022-09-27T18:15:44.120Z,9.90
2022-09-27T18:18:17.836Z,5.78
2022-09-27T18:20:49.607Z,7.70
2022-09-27T18:23:19.524Z,7.75
2022-09-27T18:25:56.375Z,5.65
2022-09-27T18:28:34.291Z,6.18
2022-09-27T18:34:01.377Z,5.93
2022-09-27T18:36:33.784Z,5.40
2022-09-27T18:39:06.706Z,4.45
2022-09-27T18:41:36.970Z,4.55
2022-09-27T18:44:07.966Z,7.43
2022-09-27T18:46:39.982Z,6.65
2022-09-27T18:49:11.713Z,12.82
2022-09-27T18:51:46.521Z,9.60
2022-09-27T18:54:20.113Z,10.05
2022-09-27T18:56:52.455Z,6.25
2022-09-27T18:59:24.235Z,8.73
2022-09-27T19:01:56.904Z,9.02
2022-09-27T19:04:28.571Z,12.48
2022-09-27T19:07:00.372Z,7.43
2022-09-27T19:09:31.790Z,7.90
2022-09-27T19:12:07.264Z,9.90
2022-09-27T19:14:37.123Z,6.18
2022-09-27T19:17:09.490Z,6.75
2022-09-27T19:19:40.601Z,7.15
2022-09-27T19:22:11.093Z,7.05
2022-09-27T19:24:43.522Z,14.10
2022-09-27T19:27:23.201Z,6.53
2022-09-27T19:29:59.966Z,8.23
2022-09-27T19:32:34.498Z,7.55
2022-09-27T19:35:06.169Z,7.25
2022-09-27T19:37:42.112Z,7.10
2022-09-27T19:40:12.259Z,8.20
2022-09-27T19:42:41.876Z,9.63
2022-09-27T19:45:39.788Z,9.20
2022-09-27T19:48:13.253Z,7.55
2022-09-27T19:50:46.099Z,9.43
2022-09-27T19:53:17.204Z,10.48
2022-09-27T19:55:51.515Z,6.60
2022-09-27T19:58:21.460Z,5.43
2022-09-27T20:01:03.680Z,6.25
2022-09-27T20:03:38.218Z,7.70
2022-09-27T20:06:11.703Z,6.20
2022-09-27T20:11:37.775Z,7.82
2022-09-27T20:14:15.652Z,6.95
2022-09-27T20:16:46.441Z,6.38
2022-09-27T20:19:20.330Z,5.13
2022-09-27T20:21:53.682Z,5.53
2022-09-27T20:24:24.471Z,4.65
2022-09-27T20:26:54.771Z,6.28
2022-09-27T20:29:33.166Z,4.30
2022-09-27T20:32:26.105Z,5.80
2022-09-27T20:34:56.256Z,6.88
2022-09-27T20:37:27.801Z,5.13
2022-09-27T20:39:58.167Z,6.78
2022-09-27T20:42:27.989Z,5.43
2022-09-27T20:44:57.640Z,4.13
2022-09-27T20:47:30.359Z,4.68
2022-09-27T20:50:03.210Z,3.60
2022-09-27T20:52:32.997Z,6.55
2022-09-27T20:55:02.493Z,6.10
2022-09-27T20:57:55.927Z,5.20
2022-09-27T21:00:27.187Z,4.53
2022-09-27T21:02:56.808Z,6.63
2022-09-27T21:05:29.701Z,4.10
2022-09-27T21:07:59.022Z,4.13
2022-09-27T21:10:28.767Z,4.20
2022-09-27T21:13:00.206Z,3.85
2022-09-27T21:15:32.915Z,5.38
2022-09-27T21:18:01.951Z,5.63
2022-09-27T21:20:32.709Z,6.00
2022-09-27T21:23:01.924Z,2.95
2022-09-27T21:25:33.769Z,4.38
2022-09-27T21:28:04.378Z,3.75
2022-09-27T21:30:34.178Z,5.75
2022-09-27T21:33:04.094Z,4.55
2022-09-27T21:35:35.573Z,4.00
2022-09-27T21:38:04.990Z,4.82
2022-09-27T21:40:34.130Z,3.63
2022-09-27T21:43:03.183Z,3.60
2022-09-27T21:45:33.341Z,4.07
2022-09-27T21:48:02.708Z,3.60
2022-09-27T21:50:35.228Z,7.18
2022-09-27T21:53:05.834Z,5.28
2022-09-27T21:55:34.903Z,3.90
2022-09-27T21:58:03.890Z,5.95
2022-09-27T22:00:32.905Z,3.70
2022-09-27T22:03:01.833Z,3.60
2022-09-27T22:05:33.634Z,4.13
2022-09-27T22:08:02.964Z,4.78
2022-09-27T22:10:34.242Z,5.68
2022-09-27T22:13:03.120Z,3.40
2022-09-27T22:15:32.200Z,3.65
2022-09-27T22:18:01.487Z,5.43
2022-09-27T22:20:30.429Z,4.43
2022-09-27T22:22:59.720Z,3.05
2022-09-27T22:25:31.235Z,5.55
2022-09-27T22:28:03.579Z,4.32
2022-09-27T22:30:32.624Z,5.03
2022-09-27T22:33:02.272Z,3.95
2022-09-27T22:35:31.341Z,4.43
2022-09-27T22:38:02.281Z,3.85
2022-09-27T22:40:31.474Z,5.18
2022-09-27T22:43:01.856Z,3.05
2022-09-27T22:45:31.851Z,3.47
2022-09-27T22:48:03.414Z,3.90
2022-09-27T22:50:33.085Z,4.80
2022-09-27T22:53:02.072Z,3.20
2022-09-27T22:55:31.123Z,4.60
2022-09-27T22:58:04.704Z,4.53
2022-09-27T23:00:35.029Z,4.78
2022-09-27T23:03:04.063Z,3.63
2022-09-27T23:05:33.179Z,4.00
2022-09-27T23:08:02.354Z,3.92
2022-09-27T23:10:31.787Z,4.85
2022-09-27T23:13:02.244Z,3.03
2022-09-27T23:15:31.290Z,4.05
2022-09-27T23:18:00.462Z,3.60
2022-09-27T23:20:29.933Z,5.43
2022-09-27T23:22:59.290Z,3.50
2022-09-27T23:25:28.385Z,3.83
2022-09-27T23:27:57.508Z,6.63
2022-09-27T23:30:30.330Z,4.45
2022-09-27T23:32:59.400Z,4.95
2022-09-27T23:35:31.653Z,4.75
2022-09-27T23:38:01.494Z,4.53
2022-09-27T23:40:31.617Z,6.72
2022-09-27T23:43:01.639Z,4.53
2022-09-27T23:45:33.564Z,7.63
2022-09-27T23:48:04.246Z,4.63
2022-09-27T23:50:34.792Z,5.85
2022-09-27T23:53:04.146Z,4.88
2022-09-27T23:55:33.400Z,6.45
2022-09-27T23:58:02.632Z,6.10
